Time;durP1;ratioP1;P1;durP2;ratioP2;P2;SDS_P1;SDS_P2;PMS_P1;PMS_P2;Temp;Humidity;BMP_temperature;BMP_pressure;BME280_temperature;BME280_humidity;BME280_pressure;Samples;Min_cycle;Max_cycle;Signal;HPM_P1;HPM_P2
2021/12/15 05:02:44;;;;;;;50.17;27.17;;;;;;;-2.19;100.00;101673.50;5791715;28;20129;-83
2021/12/15 05:05:47;;;;;;;52.17;27.52;;;;;;;-2.16;100.00;101676.03;5343490;33;34521;-83
2021/12/15 05:08:50;;;;;;;52.45;27.98;;;;;;;-2.10;100.00;101671.34;5343220;33;33962;-83
2021/12/15 05:11:54;;;;;;;49.80;28.83;;;;;;;-2.08;100.00;101685.34;5343503;33;34837;-83
2021/12/15 05:14:57;;;;;;;51.88;27.77;;;;;;;-2.00;100.00;101695.53;5343031;33;33992;-83
2021/12/15 05:18:00;;;;;;;49.42;27.20;;;;;;;-2.03;100.00;101697.47;5343248;33;33980;-83
2021/12/15 05:21:05;;;;;;;55.53;28.35;;;;;;;-1.95;100.00;101698.00;5343068;33;33992;-83
2021/12/15 05:24:25;;;;;;;47.55;27.37;;;;;;;-1.92;100.00;101693.44;5342836;33;34102;-83
2021/12/15 05:27:28;;;;;;;51.50;27.90;;;;;;;-1.88;100.00;101702.06;5343065;33;34486;-83
2021/12/15 05:30:31;;;;;;;46.90;26.95;;;;;;;-1.94;100.00;101710.25;5343359;33;34778;-83
2021/12/15 05:33:34;;;;;;;53.90;28.65;;;;;;;-1.89;100.00;101716.22;5343253;33;34292;-83
2021/12/15 05:36:37;;;;;;;51.33;28.70;;;;;;;-1.85;100.00;101702.81;5345084;33;34620;-83
2021/12/15 05:39:40;;;;;;;51.85;27.45;;;;;;;-1.75;100.00;101710.34;5361510;33;34021;-83
2021/12/15 05:42:44;;;;;;;51.63;29.08;;;;;;;-1.67;100.00;101714.38;5360909;33;34454;-83
2021/12/15 05:45:48;;;;;;;49.05;28.52;;;;;;;-1.67;100.00;101719.66;5361445;33;34729;-83
2021/12/15 05:48:51;;;;;;;49.17;28.48;;;;;;;-1.62;100.00;101722.09;5362306;33;34034;-83
2021/12/15 05:51:55;;;;;;;48.97;28.48;;;;;;;-1.66;100.00;101718.72;5361795;33;34028;-83
2021/12/15 05:54:59;;;;;;;55.33;30.55;;;;;;;-1.60;100.00;101734.28;5363108;33;34022;-82
2021/12/15 05:58:04;;;;;;;52.78;28.90;;;;;;;-1.50;100.00;101732.09;5373727;33;34243;-82
2021/12/15 06:01:07;;;;;;;57.15;32.83;;;;;;;-1.42;100.00;101737.91;5374788;33;35361;-82
2021/12/15 06:04:11;;;;;;;54.80;30.10;;;;;;;-1.35;100.00;101751.69;5376596;33;35013;-83
2021/12/15 06:07:13;;;;;;;52.20;29.35;;;;;;;-1.26;100.00;101751.28;5366384;33;34232;-83
2021/12/15 06:10:21;;;;;;;55.40;31.30;;;;;;;-1.41;100.00;101760.75;5361162;33;34148;-82
2021/12/15 06:13:26;;;;;;;58.63;32.05;;;;;;;-1.50;100.00;101769.06;5361002;33;34465;-83
2021/12/15 06:16:30;;;;;;;60.83;32.67;;;;;;;-1.34;100.00;101774.56;5360899;33;34417;-83
2021/12/15 06:19:33;;;;;;;63.97;34.55;;;;;;;-1.53;100.00;101769.22;5360670;33;34477;-83
2021/12/15 06:22:37;;;;;;;66.62;34.08;;;;;;;-1.57;100.00;101775.56;5360195;33;34210;-82
2021/12/15 06:25:40;;;;;;;69.32;35.13;;;;;;;-1.65;100.00;101769.75;5360562;33;34437;-82
2021/12/15 06:28:44;;;;;;;70.03;33.83;;;;;;;-1.72;100.00;101761.22;5360476;33;34497;-83
2021/12/15 06:31:46;;;;;;;64.53;33.42;;;;;;;-1.77;100.00;101759.72;5360800;33;33686;-82
2021/12/15 06:34:49;;;;;;;73.40;36.00;;;;;;;-1.85;100.00;101771.44;5356992;33;33838;-83
2021/12/15 06:37:52;;;;;;;73.82;37.30;;;;;;;-1.95;100.00;101777.16;5342674;33;33922;-82
2021/12/15 06:40:55;;;;;;;70.75;36.13;;;;;;;-1.87;100.00;101775.06;5344345;33;34126;-82
2021/12/15 06:43:59;;;;;;;75.05;37.63;;;;;;;-1.83;100.00;101784.56;5342290;33;34039;-83
2021/12/15 06:47:24;;;;;;;68.97;35.50;;;;;;;-1.79;100.00;101769.47;5342325;33;33512;-82
2021/12/15 07:00:39;;;;;;;60.38;34.67;;;;;;;-1.43;100.00;101782.91;5339794;33;34308;-82
2021/12/15 07:03:42;;;;;;;59.42;32.80;;;;;;;-1.47;100.00;101797.16;5341408;33;34435;-83
2021/12/15 07:06:46;;;;;;;68.45;34.40;;;;;;;-1.47;100.00;101794.50;5332358;33;34727;-82
2021/12/15 07:09:49;;;;;;;62.38;34.00;;;;;;;-1.28;100.00;101784.88;5338049;33;34625;-83
2021/12/15 07:12:53;;;;;;;63.97;33.05;;;;;;;-1.27;100.00;101773.38;5336849;33;34449;-82
2021/12/15 07:16:01;;;;;;;61.40;33.28;;;;;;;-1.29;100.00;101788.41;5342858;33;34728;-83
2021/12/15 07:19:08;;;;;;;65.72;34.90;;;;;;;-1.18;100.00;101786.16;5343175;33;34793;-83
2021/12/15 07:22:28;;;;;;;65.65;32.42;;;;;;;-1.30;100.00;101791.12;5343737;33;34608;-83
2021/12/15 07:25:31;;;;;;;70.47;35.80;;;;;;;-1.20;100.00;101793.31;5348764;33;33911;-83
2021/12/15 07:28:34;;;;;;;77.15;35.10;;;;;;;-1.28;100.00;101790.16;5344646;33;34209;-82
2021/12/15 07:31:37;;;;;;;77.07;36.50;;;;;;;-1.26;100.00;101795.34;5347264;33;34173;-83
2021/12/15 07:34:40;;;;;;;80.62;36.88;;;;;;;-1.27;100.00;101785.72;5359096;33;34093;-83
2021/12/15 07:37:44;;;;;;;84.82;38.25;;;;;;;-1.16;100.00;101801.97;5340404;33;34145;-83
2021/12/15 07:40:47;;;;;;;87.55;37.72;;;;;;;-1.07;100.00;101801.56;5343353;33;34682;-83
2021/12/15 07:43:50;;;;;;;84.18;37.70;;;;;;;-1.01;100.00;101800.44;5342743;33;34383;-83
2021/12/15 07:47:13;;;;;;;83.32;36.83;;;;;;;-0.95;100.00;101816.00;5331967;33;34166;-83
2021/12/15 07:50:19;;;;;;;85.32;36.90;;;;;;;-0.86;100.00;101818.25;5342303;33;34444;-83
2021/12/15 07:53:22;;;;;;;86.82;37.42;;;;;;;-0.99;100.00;101814.44;5340588;33;34747;-83
2021/12/15 07:56:25;;;;;;;89.78;37.20;;;;;;;-0.95;100.00;101821.28;5355226;33;33326;-83
2021/12/15 07:59:28;;;;;;;104.32;39.47;;;;;;;-1.20;100.00;101830.31;5342637;33;32235;-83
2021/12/15 08:02:31;;;;;;;101.12;37.63;;;;;;;-1.23;100.00;101842.78;5343091;33;34417;-83
2021/12/15 08:05:37;;;;;;;91.45;38.80;;;;;;;-1.13;100.00;101843.25;5342408;33;34799;-83
2021/12/15 08:08:39;;;;;;;90.60;41.42;;;;;;;-1.31;100.00;101844.91;5342851;33;34567;-83
2021/12/15 08:11:42;;;;;;;88.18;37.72;;;;;;;-1.14;100.00;101850.34;5341863;33;34064;-83
2021/12/15 08:14:45;;;;;;;114.35;42.25;;;;;;;-1.15;100.00;101849.44;5329667;33;34716;-83
2021/12/15 08:17:51;;;;;;;95.90;41.53;;;;;;;-1.06;100.00;101852.62;5336048;33;33548;-83
2021/12/15 08:20:54;;;;;;;88.65;39.05;;;;;;;-1.01;100.00;101854.16;5341308;33;33946;-83
2021/12/15 08:23:57;;;;;;;82.07;40.53;;;;;;;-0.83;100.00;101854.25;5343611;33;34408;-83
2021/12/15 08:27:00;;;;;;;95.45;40.67;;;;;;;-0.75;100.00;101855.62;5333699;33;34416;-83
2021/12/15 08:30:08;;;;;;;100.18;43.45;;;;;;;-0.80;100.00;101862.06;5337612;33;34800;-83
2021/12/15 08:33:16;;;;;;;106.28;44.97;;;;;;;-0.70;100.00;101868.66;5342018;33;34264;-83
2021/12/15 08:36:20;;;;;;;101.65;43.50;;;;;;;-0.64;100.00;101864.84;5333063;33;33909;-83
2021/12/15 08:39:22;;;;;;;89.43;43.47;;;;;;;-0.55;100.00;101872.41;5339519;33;33823;-83
2021/12/15 08:42:26;;;;;;;102.90;43.58;;;;;;;-0.42;100.00;101873.53;5339215;33;34042;-83
2021/12/15 08:45:30;;;;;;;96.93;41.65;;;;;;;-0.31;100.00;101881.84;5341489;33;33529;-83
2021/12/15 08:48:38;;;;;;;98.20;43.95;;;;;;;-0.18;100.00;101886.56;5341719;33;34431;-83
2021/12/15 08:51:40;;;;;;;105.90;43.38;;;;;;;-0.03;100.00;101881.44;5337195;33;35381;-83
2021/12/15 08:54:43;;;;;;;93.40;42.83;;;;;;;0.03;100.00;101877.63;5352362;33;35330;-83
2021/12/15 08:57:47;;;;;;;102.20;43.95;;;;;;;0.04;100.00;101881.13;5347130;33;33987;-83
2021/12/15 09:00:53;;;;;;;95.05;41.30;;;;;;;0.24;100.00;101878.41;5342761;33;34030;-83
2021/12/15 09:03:56;;;;;;;107.03;41.70;;;;;;;0.36;100.00;101871.63;5351633;33;34429;-83
2021/12/15 09:06:59;;;;;;;98.65;42.45;;;;;;;0.49;100.00;101870.09;5338600;33;33978;-83
2021/12/15 09:10:05;;;;;;;108.10;43.85;;;;;;;0.40;100.00;101875.84;5334497;33;34391;-83
2021/12/15 09:13:12;;;;;;;109.93;43.33;;;;;;;0.54;100.00;101870.72;5332952;33;34024;-82
2021/12/15 09:16:15;;;;;;;97.05;40.30;;;;;;;0.60;100.00;101873.06;5335092;33;34046;-83
2021/12/15 09:19:20;;;;;;;98.78;42.17;;;;;;;0.60;100.00;101882.81;5334215;33;34436;-83
2021/12/15 09:22:23;;;;;;;115.68;44.90;;;;;;;0.61;100.00;101873.91;5340963;33;33721;-83
2021/12/15 09:25:27;;;;;;;102.78;44.25;;;;;;;0.58;100.00;101877.56;5344703;33;34481;-83
2021/12/15 09:28:32;;;;;;;104.75;44.03;;;;;;;0.74;100.00;101875.03;5343067;33;33679;-89
2021/12/15 09:31:35;;;;;;;100.55;44.88;;;;;;;0.71;100.00;101871.69;5340914;33;34787;-86
2021/12/15 09:34:38;;;;;;;102.22;43.87;;;;;;;0.97;100.00;101873.00;5341169;33;34208;-89
2021/12/15 09:37:44;;;;;;;97.00;43.10;;;;;;;0.97;100.00;101868.56;5342652;33;34069;-86
2021/12/15 09:40:49;;;;;;;92.07;41.25;;;;;;;1.02;100.00;101869.16;5339352;33;33721;-83
2021/12/15 09:43:56;;;;;;;96.70;42.15;;;;;;;1.06;100.00;101864.56;5344359;33;33984;-84
2021/12/15 09:47:35;;;;;;;94.10;42.33;;;;;;;0.90;100.00;101862.69;5336145;33;33705;-83
2021/12/15 10:02:59;;;;;;;94.70;41.92;;;;;;;1.00;100.00;101873.69;5593919;31;34492;-84
2021/12/15 10:06:23;;;;;;;97.93;42.80;;;;;;;1.09;100.00;101870.56;5587760;31;33853;-84
2021/12/15 10:19:31;;;;;;;86.35;40.38;;;;;;;1.61;100.00;101874.00;5584606;31;34909;-88
2021/12/15 10:22:42;;;;;;;98.28;43.05;;;;;;;1.81;96.73;101868.47;5580709;31;34170;-84
2021/12/15 10:25:53;;;;;;;86.80;42.20;;;;;;;1.64;98.22;101864.13;5587420;31;33693;-83
2021/12/15 10:28:55;;;;;;;88.30;42.08;;;;;;;1.65;98.54;101865.81;5591869;31;33812;-83
2021/12/15 10:32:02;;;;;;;86.12;41.97;;;;;;;1.84;98.12;101870.09;5580308;31;33732;-83
2021/12/15 10:35:13;;;;;;;86.68;42.67;;;;;;;2.02;97.72;101869.09;5579740;31;34296;-82
2021/12/15 10:38:30;;;;;;;87.80;41.25;;;;;;;2.20;95.94;101875.19;5571214;32;34509;-82
2021/12/15 10:41:42;;;;;;;87.60;42.58;;;;;;;2.47;94.22;101870.94;5577816;31;34529;-83
2021/12/15 10:44:45;;;;;;;83.72;42.33;;;;;;;2.62;92.59;101868.31;5578252;31;33864;-82
2021/12/15 10:47:52;;;;;;;86.15;41.60;;;;;;;2.62;93.43;101876.31;5578235;31;34256;-82
2021/12/15 10:50:55;;;;;;;82.93;43.55;;;;;;;2.69;93.58;101870.56;5577501;31;34678;-82
2021/12/15 10:54:01;;;;;;;80.80;40.85;;;;;;;2.87;91.35;101870.41;5581860;31;33794;-82
2021/12/15 10:57:06;;;;;;;82.78;41.35;;;;;;;3.13;90.41;101871.47;5589818;31;34288;-82
2021/12/15 11:00:19;;;;;;;70.43;38.97;;;;;;;3.02;91.62;101872.16;5587158;31;34952;-82
2021/12/15 11:03:32;;;;;;;76.25;40.55;;;;;;;3.21;90.49;101866.56;5582907;31;33716;-82
2021/12/15 11:07:17;;;;;;;78.62;40.70;;;;;;;3.30;88.76;101868.66;5571668;32;35095;-83
2021/12/15 11:10:28;;;;;;;72.80;39.33;;;;;;;3.36;89.47;101862.97;5564381;31;34002;-83
2021/12/15 11:13:31;;;;;;;73.12;38.95;;;;;;;3.31;90.21;101864.19;5565714;32;33807;-83
2021/12/15 11:16:34;;;;;;;71.80;41.37;;;;;;;3.46;89.08;101870.37;5573335;31;33848;-82
2021/12/15 11:19:54;;;;;;;71.93;41.28;;;;;;;3.56;88.40;101861.69;5568027;32;33983;-82
2021/12/15 11:23:17;;;;;;;81.05;43.30;;;;;;;3.14;90.30;101859.91;5568319;31;33386;-83
2021/12/15 11:26:19;;;;;;;71.65;42.13;;;;;;;3.25;90.13;101860.09;5575169;32;34755;-83
2021/12/15 11:29:42;;;;;;;73.00;41.35;;;;;;;3.13;91.14;101860.81;5576237;32;34100;-82
2021/12/15 11:32:48;;;;;;;69.00;40.45;;;;;;;3.33;91.05;101856.97;5569255;32;33931;-83
2021/12/15 11:35:57;;;;;;;68.78;39.72;;;;;;;3.87;87.07;101859.78;5565884;32;33412;-83
2021/12/15 11:39:08;;;;;;;75.68;42.90;;;;;;;3.90;85.86;101848.06;5565843;32;33579;-83
2021/12/15 11:42:12;;;;;;;66.87;40.08;;;;;;;3.73;87.58;101839.34;5568074;32;33632;-83
2021/12/15 11:45:15;;;;;;;79.60;43.50;;;;;;;3.86;86.31;101842.94;5567203;32;33836;-83
2021/12/15 11:48:25;;;;;;;70.85;40.28;;;;;;;3.81;88.47;101839.72;5567314;32;34861;-83
2021/12/15 11:51:35;;;;;;;74.25;41.20;;;;;;;3.87;88.15;101834.00;5588557;32;35299;-83
2021/12/15 11:54:46;;;;;;;68.72;40.60;;;;;;;3.84;86.78;101836.84;5568632;32;34228;-83
2021/12/15 11:57:49;;;;;;;66.87;41.28;;;;;;;3.83;87.40;101843.16;5566470;32;33850;-83
2021/12/15 12:00:52;;;;;;;71.10;39.42;;;;;;;3.91;86.43;101839.12;5567393;31;34079;-83
2021/12/15 12:04:18;;;;;;;68.70;38.80;;;;;;;3.99;86.84;101842.16;5568871;32;33755;-87
2021/12/15 12:07:23;;;;;;;71.93;43.38;;;;;;;4.09;87.01;101843.25;5561727;32;33510;-83
2021/12/15 12:10:45;;;;;;;68.55;40.15;;;;;;;4.22;85.60;101840.66;5564835;31;33952;-83
2021/12/15 12:13:50;;;;;;;77.87;42.03;;;;;;;4.48;84.80;101836.28;5565573;32;33854;-83
2021/12/15 12:16:53;;;;;;;73.28;41.22;;;;;;;4.39;85.06;101828.84;5550006;31;33154;-84
2021/12/15 12:20:09;;;;;;;62.10;38.70;;;;;;;4.37;85.50;101830.78;5561665;31;34031;-83
2021/12/15 12:23:15;;;;;;;65.22;38.85;;;;;;;4.29;84.77;101834.81;5566684;31;33771;-83
2021/12/15 12:26:26;;;;;;;61.35;36.17;;;;;;;4.15;85.23;101829.53;5575148;31;33895;-83
2021/12/15 12:29:30;;;;;;;63.40;38.45;;;;;;;4.28;84.44;101835.78;5566609;32;34161;-83
2021/12/15 12:32:32;;;;;;;73.68;40.47;;;;;;;4.21;83.88;101828.25;5559323;32;32682;-83
2021/12/15 12:35:42;;;;;;;70.12;40.42;;;;;;;4.22;84.50;101836.19;5564346;32;32666;-83
2021/12/15 12:38:51;;;;;;;66.90;38.47;;;;;;;4.02;85.30;101836.63;5567736;31;34409;-83
2021/12/15 12:41:55;;;;;;;64.12;35.83;;;;;;;3.67;86.81;101838.88;5572946;31;34501;-83
2021/12/15 12:45:37;;;;;;;63.03;35.50;;;;;;;3.78;86.81;101831.94;5587743;31;34166;-83
2021/12/15 12:59:25;;;;;;;60.30;35.13;;;;;;;3.63;87.53;101830.25;5562639;31;33955;-83
2021/12/15 13:06:00;;;;;;;64.80;36.00;;;;;;;3.89;86.54;101815.25;5566035;32;34380;-83
2021/12/15 13:09:07;;;;;;;58.63;33.53;;;;;;;3.96;86.59;101813.03;5556216;32;33374;-82
2021/12/15 13:12:27;;;;;;;62.90;34.95;;;;;;;4.10;85.64;101805.00;5558142;32;34382;-83
2021/12/15 13:15:34;;;;;;;61.37;36.00;;;;;;;4.18;85.15;101796.47;5552716;32;33853;-84
2021/12/15 13:18:54;;;;;;;60.35;36.80;;;;;;;4.27;83.75;101801.19;5565083;32;34606;-83
2021/12/15 13:28:49;;;;;;;65.20;34.15;;;;;;;4.18;85.00;101791.16;5584351;32;34222;-84
2021/12/15 13:31:58;;;;;;;61.58;35.83;;;;;;;4.18;84.88;101799.16;5558452;32;35148;-82
2021/12/15 13:35:01;;;;;;;63.05;36.33;;;;;;;4.19;85.56;101792.87;5556558;32;33942;-82
2021/12/15 13:38:29;;;;;;;63.25;36.63;;;;;;;4.16;85.33;101801.94;5565807;32;34166;-84
2021/12/15 13:41:59;;;;;;;63.72;38.08;;;;;;;4.19;84.84;101801.72;5558940;32;33656;-84
2021/12/15 13:45:02;;;;;;;62.83;37.07;;;;;;;4.16;85.06;101806.41;5551385;32;34151;-84
2021/12/15 13:48:06;;;;;;;64.80;35.85;;;;;;;4.10;84.86;101815.66;5566305;32;34255;-84
2021/12/15 13:51:09;;;;;;;67.65;36.97;;;;;;;4.03;85.24;101812.53;5561231;32;33288;-83
2021/12/15 13:54:33;;;;;;;67.62;39.60;;;;;;;4.00;86.20;101811.88;5564739;32;33796;-84
2021/12/15 13:57:58;;;;;;;72.18;40.78;;;;;;;3.91;86.30;101813.31;5564483;32;33814;-89
2021/12/15 14:01:05;;;;;;;73.53;39.63;;;;;;;4.00;86.23;101819.87;5552810;32;33697;-83
2021/12/15 14:04:09;;;;;;;69.10;39.40;;;;;;;3.81;87.14;101810.41;5568988;32;34528;-83
2021/12/15 14:07:30;;;;;;;65.75;38.08;;;;;;;3.66;88.03;101814.06;5555902;32;34194;-83
2021/12/15 14:10:33;;;;;;;73.57;42.08;;;;;;;3.55;88.73;101814.75;5562603;31;33957;-83
2021/12/15 14:13:40;;;;;;;75.65;38.53;;;;;;;3.49;89.30;101819.59;5560057;32;33913;-83
2021/12/15 14:16:56;;;;;;;74.68;40.12;;;;;;;3.27;90.47;101836.91;5551862;32;33620;-83
2021/12/15 14:20:18;;;;;;;72.18;40.47;;;;;;;3.24;91.22;101831.75;5565356;31;33766;-83
2021/12/15 14:23:28;;;;;;;72.20;40.42;;;;;;;3.14;91.78;101820.84;5567135;31;33834;-83
2021/12/15 14:26:34;;;;;;;80.90;41.53;;;;;;;3.28;91.11;101833.31;5565885;32;33857;-83
2021/12/15 14:29:37;;;;;;;75.05;43.03;;;;;;;3.24;91.71;101836.22;5564286;31;33894;-83
2021/12/15 14:32:39;;;;;;;75.20;43.10;;;;;;;3.15;92.03;101829.66;5559505;32;33756;-83
2021/12/15 14:35:42;;;;;;;73.40;41.50;;;;;;;3.09;92.52;101825.56;5561784;31;33759;-83
2021/12/15 14:38:52;;;;;;;70.40;40.30;;;;;;;2.99;92.86;101835.09;5574335;31;33584;-82
2021/12/15 14:42:21;;;;;;;71.47;37.88;;;;;;;2.91;93.54;101824.03;5569054;31;33939;-83
2021/12/15 14:45:24;;;;;;;68.22;37.08;;;;;;;2.78;93.96;101826.59;5569834;31;34577;-87
2021/12/15 14:48:28;;;;;;;66.50;37.17;;;;;;;2.66;94.87;101829.97;5570170;32;33697;-87
2021/12/15 14:51:31;;;;;;;62.90;33.55;;;;;;;2.60;94.64;101839.16;5571684;32;34449;-87
2021/12/15 14:54:35;;;;;;;64.43;34.15;;;;;;;2.45;95.50;101840.06;5573088;32;35084;-84
2021/12/15 14:57:38;;;;;;;62.03;33.88;;;;;;;2.31;96.10;101843.53;5578513;31;33261;-84
2021/12/15 15:00:41;;;;;;;63.05;33.83;;;;;;;2.23;96.83;101828.03;5577468;31;33394;-83
2021/12/15 15:04:13;;;;;;;59.22;33.97;;;;;;;2.30;96.51;101827.66;5587059;31;35148;-84
2021/12/15 15:07:19;;;;;;;66.20;34.58;;;;;;;2.21;96.79;101839.69;5582875;31;33632;-83
2021/12/15 15:10:25;;;;;;;62.80;34.70;;;;;;;2.08;97.31;101841.31;5587279;32;35104;-83
2021/12/15 15:13:28;;;;;;;65.75;36.08;;;;;;;2.02;98.21;101832.78;5587014;32;34810;-83
2021/12/15 15:16:34;;;;;;;64.10;35.17;;;;;;;2.10;98.92;101823.50;5574378;32;34078;-83
2021/12/15 15:19:52;;;;;;;58.38;33.55;;;;;;;2.29;97.66;101824.16;5568407;32;33443;-83
2021/12/15 15:22:57;;;;;;;62.17;34.28;;;;;;;2.31;97.28;101824.06;5567153;32;33820;-83
2021/12/15 15:26:04;;;;;;;62.95;34.63;;;;;;;2.32;96.66;101820.47;5558336;32;33395;-83
2021/12/15 15:29:06;;;;;;;61.08;34.38;;;;;;;2.14;97.38;101831.22;5561907;32;33992;-81
2021/12/15 15:32:17;;;;;;;60.47;33.53;;;;;;;2.07;97.89;101829.84;5567925;32;33535;-81
2021/12/15 15:35:28;;;;;;;58.75;32.28;;;;;;;2.00;98.51;101829.34;5563538;32;34698;-81
2021/12/15 15:38:35;;;;;;;64.10;33.13;;;;;;;1.99;98.85;101829.41;5558680;32;35743;-81
2021/12/15 15:41:38;;;;;;;61.60;32.35;;;;;;;1.98;99.47;101825.06;5561296;32;34354;-80
2021/12/15 15:44:41;;;;;;;56.30;30.73;;;;;;;1.93;99.23;101838.59;5568102;32;33944;-81
2021/12/15 15:47:44;;;;;;;55.42;32.72;;;;;;;1.77;99.44;101843.91;5566182;32;34518;-81
2021/12/15 15:51:02;;;;;;;60.95;32.80;;;;;;;1.66;100.00;101848.09;5566540;32;34038;-81
2021/12/15 15:54:12;;;;;;;65.95;34.47;;;;;;;1.64;100.00;101857.91;5553313;32;35350;-85
2021/12/15 15:57:30;;;;;;;69.37;36.15;;;;;;;1.56;100.00;101861.88;5566209;32;33807;-81
2021/12/15 16:01:01;;;;;;;69.95;37.38;;;;;;;1.54;100.00;101863.75;5562247;32;33413;-81
2021/12/15 16:04:09;;;;;;;70.78;38.05;;;;;;;1.49;100.00;101871.13;5561491;32;34482;-82
2021/12/15 16:07:16;;;;;;;71.90;37.83;;;;;;;1.48;100.00;101865.88;5570047;32;34987;-82
2021/12/15 16:10:24;;;;;;;73.90;38.55;;;;;;;1.35;100.00;101877.16;5570055;32;33733;-82
2021/12/15 16:13:31;;;;;;;72.57;40.28;;;;;;;1.26;100.00;101880.28;5577146;32;34008;-83
2021/12/15 16:17:07;;;;;;;79.40;41.85;;;;;;;1.20;100.00;101885.03;5582000;32;34440;-82
2021/12/15 16:20:21;;;;;;;73.20;39.05;;;;;;;1.19;100.00;101886.00;5567403;32;33532;-82
2021/12/15 16:23:30;;;;;;;66.60;38.53;;;;;;;1.18;100.00;101873.69;5567458;32;33642;-82
2021/12/15 16:26:40;;;;;;;73.82;38.35;;;;;;;1.20;100.00;101874.44;5567752;32;34005;-83
2021/12/15 16:29:44;;;;;;;76.12;39.63;;;;;;;1.17;100.00;101882.53;5568103;32;34236;-82
2021/12/15 16:32:48;;;;;;;74.97;40.20;;;;;;;1.12;100.00;101883.66;5567478;32;33747;-82
2021/12/15 16:35:52;;;;;;;72.87;41.60;;;;;;;1.07;100.00;101874.22;5567800;32;34083;-82
2021/12/15 16:38:55;;;;;;;73.43;40.55;;;;;;;1.05;100.00;101873.44;5567680;32;33697;-85
2021/12/15 16:41:58;;;;;;;72.40;39.40;;;;;;;0.95;100.00;101865.09;5567681;32;33958;-86
2021/12/15 16:45:07;;;;;;;71.53;38.97;;;;;;;0.87;100.00;101870.78;5567938;32;34168;-86
2021/12/15 16:48:27;;;;;;;71.80;39.15;;;;;;;0.77;100.00;101866.91;5567614;32;34444;-83
2021/12/15 16:51:30;;;;;;;75.47;39.95;;;;;;;0.71;100.00;101861.94;5568028;32;34897;-83
2021/12/15 16:54:38;;;;;;;66.28;37.05;;;;;;;0.69;100.00;101874.37;5567479;32;33643;-83
2021/12/15 16:57:46;;;;;;;68.12;37.67;;;;;;;0.63;100.00;101866.75;5567238;32;33524;-83
2021/12/15 17:00:49;;;;;;;63.28;35.35;;;;;;;0.57;100.00;101875.00;5567349;32;33652;-83
